»·PEaware :: N572DX KONT-KCRQ

N572DX :: KONT-KCRQ

FLIGHT INFORMATION

Flight Status: Arrived
Operator: Privately registered:
United States
More flights under this callsign
Pilot: Anonymous 13363 (13363)
Aircraft: CESSNA 172 SKYHAWK
(C172)
More flights by this aircraft type
Origin: KONT Ontario Intl
United States
Destination: KCRQ McClellan-Palomar
United States
More flights between these airports :: More routes between these airports
Route: PDZ V186 DEGLE
File this flight plan on PilotEdge
Remarks: STRICTLY FOR PEAWARE
Altitude:
(Current/Filed)
5,500ft
Speed:
(Current/Filed)
100kts
Departed: 20-Mar-17 03:12 PM
Arrived: 20-Mar-17 03:53 PM
Distance/Time
Traveled:
58nm/0:41
Distance/Time
To Go:
Arrived

Flight Plot

Page will automatically refresh every two minutes.

Flight plan parsing failed; only flown route is shown


Map Options




Map Legend


Flown Route
Filed Route
Departure Airport
Arrival Airport
Navaid (VOR, NDB)
Fix

Horizontal Profiles

Position Reports

Time Latitude Longitude Heading Altitude Ground
Speed
20-Mar-17 14:47 34.052583 -117.603345 183 940ft 0kts
20-Mar-17 14:48 34.052572 -117.603346 185 940ft 0kts
20-Mar-17 14:49 34.052430 -117.603359 153 940ft 0kts
20-Mar-17 14:50 34.052309 -117.603541 325 940ft 0kts
20-Mar-17 14:51 34.052356 -117.603580 325 940ft 0kts
20-Mar-17 14:52 34.052356 -117.603580 325 940ft 0kts
20-Mar-17 14:53 34.052356 -117.603580 325 940ft 0kts
20-Mar-17 14:54 34.052356 -117.603580 324 940ft 0kts
20-Mar-17 14:55 34.052833 -117.603553 6 940ft 4kts
20-Mar-17 14:56 34.052838 -117.603552 6 940ft 0kts
20-Mar-17 14:57 34.052838 -117.603552 6 940ft 0kts
20-Mar-17 14:58 34.052838 -117.603552 6 940ft 0kts
20-Mar-17 14:59 34.052838 -117.603552 6 940ft 0kts
20-Mar-17 15:00 34.052946 -117.603541 4 940ft 0kts
20-Mar-17 15:01 34.052946 -117.603541 4 940ft 0kts
20-Mar-17 15:02 34.052946 -117.603541 4 940ft 0kts
20-Mar-17 15:03 34.053810 -117.602956 94 940ft 16kts
20-Mar-17 15:04 34.053837 -117.594905 90 940ft 27kts
20-Mar-17 15:05 34.053829 -117.585704 91 940ft 28kts
20-Mar-17 15:06 34.053987 -117.582339 353 940ft 0kts
20-Mar-17 15:07 34.053987 -117.582339 353 940ft 0kts
20-Mar-17 15:08 34.053987 -117.582339 353 940ft 0kts
20-Mar-17 15:09 34.053987 -117.582339 353 940ft 0kts
20-Mar-17 15:10 34.053987 -117.582339 353 940ft 0kts
20-Mar-17 15:11 34.053987 -117.582339 353 940ft 0kts
20-Mar-17 15:12 34.053987 -117.582339 353 940ft 0kts
20-Mar-17 15:13 34.054954 -117.585078 272 940ft 44kts
20-Mar-17 15:14 34.050134 -117.608969 247 1533ft 94kts
20-Mar-17 15:15 34.039685 -117.638872 247 2039ft 97kts
20-Mar-17 15:16 34.028780 -117.668948 247 2524ft 98kts
20-Mar-17 15:17 34.018161 -117.698873 246 3024ft 96kts
20-Mar-17 15:18 33.994499 -117.701489 163 3514ft 105kts
20-Mar-17 15:19 33.965815 -117.688007 162 3668ft 118kts
20-Mar-17 15:20 33.934517 -117.673575 163 3678ft 121kts
20-Mar-17 15:21 33.902545 -117.664584 170 3772ft 117kts
20-Mar-17 15:22 33.873767 -117.655412 168 3872ft 111kts
20-Mar-17 15:23 33.842636 -117.646797 171 3981ft 116kts
20-Mar-17 15:24 33.811170 -117.638120 170 4091ft 117kts
20-Mar-17 15:25 33.780198 -117.625347 157 4198ft 122kts
20-Mar-17 15:26 33.749459 -117.606623 155 4296ft 124kts
20-Mar-17 15:27 33.718516 -117.588450 155 4397ft 125kts
20-Mar-17 15:28 33.686993 -117.570593 155 4501ft 125kts
20-Mar-17 15:29 33.655437 -117.552714 155 4602ft 125kts
20-Mar-17 15:30 33.624155 -117.534984 155 4704ft 125kts
20-Mar-17 15:31 33.592489 -117.516899 155 4743ft 128kts
20-Mar-17 15:32 33.569848 -117.486292 124 4730ft 112kts
20-Mar-17 15:33 33.554993 -117.455493 123 4722ft 104kts
20-Mar-17 15:34 33.540337 -117.424938 123 4726ft 106kts
20-Mar-17 15:35 33.525655 -117.394345 123 4728ft 106kts
20-Mar-17 15:36 33.508119 -117.366137 130 4729ft 105kts
20-Mar-17 15:37 33.493904 -117.343647 131 4730ft 105kts
20-Mar-17 15:38 33.476174 -117.315598 132 4731ft 107kts
20-Mar-17 15:39 33.458737 -117.285620 129 4676ft 115kts
20-Mar-17 15:40 33.437227 -117.259892 150 4575ft 110kts
20-Mar-17 15:41 33.412487 -117.238541 151 4472ft 108kts
20-Mar-17 15:42 33.386066 -117.234233 180 4510ft 92kts
20-Mar-17 15:43 33.360329 -117.230299 181 4437ft 97kts
20-Mar-17 15:44 33.332967 -117.227441 186 4230ft 98kts
20-Mar-17 15:45 33.308630 -117.226773 185 3564ft 77kts
20-Mar-17 15:46 33.284184 -117.227509 192 2570ft 94kts
20-Mar-17 15:47 33.259556 -117.236710 201 1671ft 89kts
20-Mar-17 15:48 33.235979 -117.245686 201 1175ft 89kts
20-Mar-17 15:49 33.211168 -117.253373 188 1057ft 100kts
20-Mar-17 15:50 33.183537 -117.243868 162 1066ft 107kts
20-Mar-17 15:51 33.156499 -117.230579 164 1163ft 104kts
20-Mar-17 15:52 33.136384 -117.246307 243 835ft 77kts
20-Mar-17 15:53 33.130802 -117.265801 253 435ft 53kts
20-Mar-17 15:54 33.128088 -117.281041 256 297ft 25kts
20-Mar-17 15:55 33.128409 -117.282783 349 298ft 0kts
20-Mar-17 15:56 33.129056 -117.282619 161 297ft 0kts
20-Mar-17 15:57 33.129056 -117.282619 161 297ft 0kts
20-Mar-17 15:58 33.129056 -117.282619 161 297ft 0kts

Navigation Log

Ident Type
Flight plan parsing failed, navigation log unavailable